sensor_id;sensor_type;location;lat;lon;timestamp;temperature;humidity
46085;DHT22;31823;47.032;8.310;2023-05-20T00:00:37;10.60;99.90
46085;DHT22;31823;47.032;8.310;2023-05-20T00:03:03;10.60;99.90
46085;DHT22;31823;47.032;8.310;2023-05-20T00:05:29;10.60;99.90
46085;DHT22;31823;47.032;8.310;2023-05-20T00:07:54;10.60;99.90
46085;DHT22;31823;47.032;8.310;2023-05-20T00:10:20;10.60;99.90
46085;DHT22;31823;47.032;8.310;2023-05-20T00:12:45;10.60;99.90
46085;DHT22;31823;47.032;8.310;2023-05-20T00:15:11;10.60;99.90
46085;DHT22;31823;47.032;8.310;2023-05-20T00:17:38;10.50;99.90
46085;DHT22;31823;47.032;8.310;2023-05-20T00:20:04;10.60;99.90
46085;DHT22;31823;47.032;8.310;2023-05-20T00:22:30;10.50;99.90
46085;DHT22;31823;47.032;8.310;2023-05-20T00:24:55;10.50;99.90
46085;DHT22;31823;47.032;8.310;2023-05-20T00:27:21;10.50;99.90
46085;DHT22;31823;47.032;8.310;2023-05-20T00:29:46;10.50;99.90
46085;DHT22;31823;47.032;8.310;2023-05-20T00:32:12;10.50;99.90
46085;DHT22;31823;47.032;8.310;2023-05-20T00:34:38;10.40;99.90
46085;DHT22;31823;47.032;8.310;2023-05-20T00:37:04;10.40;99.90
46085;DHT22;31823;47.032;8.310;2023-05-20T00:39:30;10.40;99.90
46085;DHT22;31823;47.032;8.310;2023-05-20T00:41:56;10.40;99.90
46085;DHT22;31823;47.032;8.310;2023-05-20T00:44:25;10.40;99.90
46085;DHT22;31823;47.032;8.310;2023-05-20T00:46:52;10.40;99.90
46085;DHT22;31823;47.032;8.310;2023-05-20T00:49:18;10.30;99.90
46085;DHT22;31823;47.032;8.310;2023-05-20T00:51:47;10.30;99.90
46085;DHT22;31823;47.032;8.310;2023-05-20T00:54:12;10.20;99.90
46085;DHT22;31823;47.032;8.310;2023-05-20T00:56:38;10.20;99.90
46085;DHT22;31823;47.032;8.310;2023-05-20T00:59:04;10.20;99.90
46085;DHT22;31823;47.032;8.310;2023-05-20T01:01:30;10.20;99.90
46085;DHT22;31823;47.032;8.310;2023-05-20T01:03:56;10.10;99.90
46085;DHT22;31823;47.032;8.310;2023-05-20T01:06:21;10.10;99.90
46085;DHT22;31823;47.032;8.310;2023-05-20T01:08:47;10.10;99.90
46085;DHT22;31823;47.032;8.310;2023-05-20T01:11:33;10.10;99.90
46085;DHT22;31823;47.032;8.310;2023-05-20T01:14:03;10.10;99.90
46085;DHT22;31823;47.032;8.310;2023-05-20T01:16:31;10.10;99.90
46085;DHT22;31823;47.032;8.310;2023-05-20T01:18:58;10.10;99.90
46085;DHT22;31823;47.032;8.310;2023-05-20T01:21:28;10.10;99.90
46085;DHT22;31823;47.032;8.310;2023-05-20T01:23:54;10.20;99.90
46085;DHT22;31823;47.032;8.310;2023-05-20T01:26:20;10.10;99.90
46085;DHT22;31823;47.032;8.310;2023-05-20T01:28:46;10.10;99.90
46085;DHT22;31823;47.032;8.310;2023-05-20T01:31:25;10.10;99.90
46085;DHT22;31823;47.032;8.310;2023-05-20T01:33:56;10.10;99.90
46085;DHT22;31823;47.032;8.310;2023-05-20T01:36:23;10.20;99.90
46085;DHT22;31823;47.032;8.310;2023-05-20T01:38:49;10.20;99.90
46085;DHT22;31823;47.032;8.310;2023-05-20T01:41:15;10.30;99.90
46085;DHT22;31823;47.032;8.310;2023-05-20T01:43:42;10.30;99.90
46085;DHT22;31823;47.032;8.310;2023-05-20T01:46:08;10.50;99.90
46085;DHT22;31823;47.032;8.310;2023-05-20T01:48:34;10.50;99.90
46085;DHT22;31823;47.032;8.310;2023-05-20T01:50:59;10.40;99.90
46085;DHT22;31823;47.032;8.310;2023-05-20T01:53:25;10.30;99.90
46085;DHT22;31823;47.032;8.310;2023-05-20T01:55:51;10.30;99.90
46085;DHT22;31823;47.032;8.310;2023-05-20T01:58:16;10.20;99.90
46085;DHT22;31823;47.032;8.310;2023-05-20T02:00:43;10.20;99.90
46085;DHT22;31823;47.032;8.310;2023-05-20T02:03:08;10.20;99.90
46085;DHT22;31823;47.032;8.310;2023-05-20T02:05:34;10.30;99.90
46085;DHT22;31823;47.032;8.310;2023-05-20T02:07:59;10.20;99.90
46085;DHT22;31823;47.032;8.310;2023-05-20T02:10:25;10.30;99.90
46085;DHT22;31823;47.032;8.310;2023-05-20T02:12:51;10.30;99.90
46085;DHT22;31823;47.032;8.310;2023-05-20T02:15:16;10.20;99.90
46085;DHT22;31823;47.032;8.310;2023-05-20T02:17:42;10.20;99.90
46085;DHT22;31823;47.032;8.310;2023-05-20T02:20:08;10.30;99.90
46085;DHT22;31823;47.032;8.310;2023-05-20T02:22:37;10.30;99.90
46085;DHT22;31823;47.032;8.310;2023-05-20T02:25:03;10.30;99.90
46085;DHT22;31823;47.032;8.310;2023-05-20T02:27:29;10.30;99.90
46085;DHT22;31823;47.032;8.310;2023-05-20T02:29:55;10.40;99.90
46085;DHT22;31823;47.032;8.310;2023-05-20T02:32:21;10.30;99.90
46085;DHT22;31823;47.032;8.310;2023-05-20T02:34:52;10.40;99.90
46085;DHT22;31823;47.032;8.310;2023-05-20T02:37:18;10.30;99.90
46085;DHT22;31823;47.032;8.310;2023-05-20T02:39:44;10.40;99.90
46085;DHT22;31823;47.032;8.310;2023-05-20T02:42:09;10.40;99.90
46085;DHT22;31823;47.032;8.310;2023-05-20T02:44:35;10.40;99.90
46085;DHT22;31823;47.032;8.310;2023-05-20T02:47:00;10.50;99.90
46085;DHT22;31823;47.032;8.310;2023-05-20T02:49:26;10.50;99.90
46085;DHT22;31823;47.032;8.310;2023-05-20T02:51:51;10.50;99.90
46085;DHT22;31823;47.032;8.310;2023-05-20T02:54:17;10.50;99.90
46085;DHT22;31823;47.032;8.310;2023-05-20T02:56:42;10.40;99.90
46085;DHT22;31823;47.032;8.310;2023-05-20T02:59:08;10.40;99.90
46085;DHT22;31823;47.032;8.310;2023-05-20T03:01:33;10.40;99.90
46085;DHT22;31823;47.032;8.310;2023-05-20T03:04:01;10.50;99.90
46085;DHT22;31823;47.032;8.310;2023-05-20T03:06:27;10.50;99.90
46085;DHT22;31823;47.032;8.310;2023-05-20T03:08:54;10.50;99.90
46085;DHT22;31823;47.032;8.310;2023-05-20T03:11:20;10.40;99.90
46085;DHT22;31823;47.032;8.310;2023-05-20T03:13:46;10.50;99.90
46085;DHT22;31823;47.032;8.310;2023-05-20T03:16:11;10.40;99.90
46085;DHT22;31823;47.032;8.310;2023-05-20T03:18:38;10.50;99.90
46085;DHT22;31823;47.032;8.310;2023-05-20T03:21:03;10.40;99.90
46085;DHT22;31823;47.032;8.310;2023-05-20T03:23:29;10.40;99.90
46085;DHT22;31823;47.032;8.310;2023-05-20T03:25:54;10.40;99.90
46085;DHT22;31823;47.032;8.310;2023-05-20T03:28:20;10.50;99.90
46085;DHT22;31823;47.032;8.310;2023-05-20T03:30:46;10.50;99.90
46085;DHT22;31823;47.032;8.310;2023-05-20T03:33:11;10.50;99.90
46085;DHT22;31823;47.032;8.310;2023-05-20T03:35:37;10.50;99.90
46085;DHT22;31823;47.032;8.310;2023-05-20T03:38:02;10.50;99.90
46085;DHT22;31823;47.032;8.310;2023-05-20T03:40:28;10.50;99.90
46085;DHT22;31823;47.032;8.310;2023-05-20T03:42:53;10.50;99.90
46085;DHT22;31823;47.032;8.310;2023-05-20T03:45:19;10.60;99.90
46085;DHT22;31823;47.032;8.310;2023-05-20T03:47:45;10.50;99.90
46085;DHT22;31823;47.032;8.310;2023-05-20T03:50:10;10.50;99.90
46085;DHT22;31823;47.032;8.310;2023-05-20T03:52:36;10.60;99.90
46085;DHT22;31823;47.032;8.310;2023-05-20T03:55:02;10.50;99.90
46085;DHT22;31823;47.032;8.310;2023-05-20T03:57:28;10.50;99.90
46085;DHT22;31823;47.032;8.310;2023-05-20T03:59:54;10.50;99.90
46085;DHT22;31823;47.032;8.310;2023-05-20T04:02:20;10.50;99.90
46085;DHT22;31823;47.032;8.310;2023-05-20T04:04:46;10.50;99.90
46085;DHT22;31823;47.032;8.310;2023-05-20T04:07:11;10.50;99.90
46085;DHT22;31823;47.032;8.310;2023-05-20T04:09:37;10.50;99.90
46085;DHT22;31823;47.032;8.310;2023-05-20T04:12:04;10.40;99.90
46085;DHT22;31823;47.032;8.310;2023-05-20T04:14:30;10.40;99.90
46085;DHT22;31823;47.032;8.310;2023-05-20T04:16:58;10.40;99.90
46085;DHT22;31823;47.032;8.310;2023-05-20T04:19:24;10.30;99.90
46085;DHT22;31823;47.032;8.310;2023-05-20T04:21:52;10.40;99.90
46085;DHT22;31823;47.032;8.310;2023-05-20T04:24:18;10.40;99.90
46085;DHT22;31823;47.032;8.310;2023-05-20T04:26:43;10.40;99.90
46085;DHT22;31823;47.032;8.310;2023-05-20T04:29:09;10.40;99.90
46085;DHT22;31823;47.032;8.310;2023-05-20T04:31:36;10.50;99.90
46085;DHT22;31823;47.032;8.310;2023-05-20T04:34:02;10.50;99.90
46085;DHT22;31823;47.032;8.310;2023-05-20T04:36:29;10.50;99.90
46085;DHT22;31823;47.032;8.310;2023-05-20T04:38:55;10.50;99.90
46085;DHT22;31823;47.032;8.310;2023-05-20T04:41:23;10.60;99.90
46085;DHT22;31823;47.032;8.310;2023-05-20T04:43:49;10.60;99.90
46085;DHT22;31823;47.032;8.310;2023-05-20T04:46:15;10.70;99.90
46085;DHT22;31823;47.032;8.310;2023-05-20T04:48:41;10.80;99.90
46085;DHT22;31823;47.032;8.310;2023-05-20T04:51:08;10.80;99.90
46085;DHT22;31823;47.032;8.310;2023-05-20T04:53:34;10.80;99.90
46085;DHT22;31823;47.032;8.310;2023-05-20T04:56:00;10.90;99.90
46085;DHT22;31823;47.032;8.310;2023-05-20T04:58:25;11.00;99.90
46085;DHT22;31823;47.032;8.310;2023-05-20T05:00:53;11.00;99.90
46085;DHT22;31823;47.032;8.310;2023-05-20T05:03:19;11.00;99.90
46085;DHT22;31823;47.032;8.310;2023-05-20T05:05:45;11.10;99.90
46085;DHT22;31823;47.032;8.310;2023-05-20T05:08:10;11.10;99.90
46085;DHT22;31823;47.032;8.310;2023-05-20T05:10:36;11.30;99.90
46085;DHT22;31823;47.032;8.310;2023-05-20T05:13:02;11.30;99.90
46085;DHT22;31823;47.032;8.310;2023-05-20T05:15:27;11.40;99.90
46085;DHT22;31823;47.032;8.310;2023-05-20T05:17:53;11.50;99.90
46085;DHT22;31823;47.032;8.310;2023-05-20T05:20:19;11.70;99.90
46085;DHT22;31823;47.032;8.310;2023-05-20T05:22:45;11.60;99.90
46085;DHT22;31823;47.032;8.310;2023-05-20T05:25:11;11.60;99.90
46085;DHT22;31823;47.032;8.310;2023-05-20T05:27:37;11.60;99.90
46085;DHT22;31823;47.032;8.310;2023-05-20T05:30:04;11.70;99.90
46085;DHT22;31823;47.032;8.310;2023-05-20T05:32:30;11.60;99.90
46085;DHT22;31823;47.032;8.310;2023-05-20T05:34:56;11.70;99.90
46085;DHT22;31823;47.032;8.310;2023-05-20T05:37:22;11.50;99.90
46085;DHT22;31823;47.032;8.310;2023-05-20T05:39:48;11.70;99.90
46085;DHT22;31823;47.032;8.310;2023-05-20T05:42:13;11.80;99.90
46085;DHT22;31823;47.032;8.310;2023-05-20T05:44:39;11.80;99.90
46085;DHT22;31823;47.032;8.310;2023-05-20T05:47:04;11.80;99.90
46085;DHT22;31823;47.032;8.310;2023-05-20T05:49:31;11.90;99.90
46085;DHT22;31823;47.032;8.310;2023-05-20T05:51:57;11.90;99.90
46085;DHT22;31823;47.032;8.310;2023-05-20T05:54:22;11.80;99.90
46085;DHT22;31823;47.032;8.310;2023-05-20T05:56:49;11.70;99.90
46085;DHT22;31823;47.032;8.310;2023-05-20T05:59:15;11.80;99.90
46085;DHT22;31823;47.032;8.310;2023-05-20T06:01:41;12.00;99.90
46085;DHT22;31823;47.032;8.310;2023-05-20T06:04:06;12.20;99.90
46085;DHT22;31823;47.032;8.310;2023-05-20T06:06:32;12.20;99.90
46085;DHT22;31823;47.032;8.310;2023-05-20T06:08:58;12.20;99.90
46085;DHT22;31823;47.032;8.310;2023-05-20T06:12:01;12.20;99.90
46085;DHT22;31823;47.032;8.310;2023-05-20T06:14:27;12.30;99.90
46085;DHT22;31823;47.032;8.310;2023-05-20T06:16:52;12.50;99.90
46085;DHT22;31823;47.032;8.310;2023-05-20T06:19:18;12.30;99.90
46085;DHT22;31823;47.032;8.310;2023-05-20T06:21:43;12.30;99.90
46085;DHT22;31823;47.032;8.310;2023-05-20T06:24:09;12.20;99.90
46085;DHT22;31823;47.032;8.310;2023-05-20T06:26:34;12.10;99.90
46085;DHT22;31823;47.032;8.310;2023-05-20T06:29:00;12.20;99.90
46085;DHT22;31823;47.032;8.310;2023-05-20T06:31:26;12.30;99.90
46085;DHT22;31823;47.032;8.310;2023-05-20T06:33:52;12.40;99.90
46085;DHT22;31823;47.032;8.310;2023-05-20T06:36:17;12.40;99.90
46085;DHT22;31823;47.032;8.310;2023-05-20T06:38:43;12.30;99.90
46085;DHT22;31823;47.032;8.310;2023-05-20T06:41:08;12.30;99.90
46085;DHT22;31823;47.032;8.310;2023-05-20T06:43:34;12.50;99.90
46085;DHT22;31823;47.032;8.310;2023-05-20T06:46:00;12.50;99.90
46085;DHT22;31823;47.032;8.310;2023-05-20T06:48:25;12.60;99.90
46085;DHT22;31823;47.032;8.310;2023-05-20T06:50:51;12.60;99.90
46085;DHT22;31823;47.032;8.310;2023-05-20T06:53:16;12.60;99.90
46085;DHT22;31823;47.032;8.310;2023-05-20T06:55:42;12.70;99.90
46085;DHT22;31823;47.032;8.310;2023-05-20T06:58:07;12.50;99.90
46085;DHT22;31823;47.032;8.310;2023-05-20T07:00:33;12.50;99.90
46085;DHT22;31823;47.032;8.310;2023-05-20T07:02:58;12.60;99.90
46085;DHT22;31823;47.032;8.310;2023-05-20T07:05:24;12.70;99.90
46085;DHT22;31823;47.032;8.310;2023-05-20T07:07:50;12.70;99.90
46085;DHT22;31823;47.032;8.310;2023-05-20T07:10:16;12.70;99.90
46085;DHT22;31823;47.032;8.310;2023-05-20T07:12:41;12.80;99.90
46085;DHT22;31823;47.032;8.310;2023-05-20T07:15:07;12.80;99.90
46085;DHT22;31823;47.032;8.310;2023-05-20T07:17:33;13.10;99.90
46085;DHT22;31823;47.032;8.310;2023-05-20T07:19:59;13.30;99.90
46085;DHT22;31823;47.032;8.310;2023-05-20T07:22:24;13.30;99.90
46085;DHT22;31823;47.032;8.310;2023-05-20T07:24:50;13.30;99.90
46085;DHT22;31823;47.032;8.310;2023-05-20T07:27:15;13.10;99.90
46085;DHT22;31823;47.032;8.310;2023-05-20T07:29:41;13.00;99.90
46085;DHT22;31823;47.032;8.310;2023-05-20T07:32:08;12.80;99.90
46085;DHT22;31823;47.032;8.310;2023-05-20T07:34:34;12.90;99.90
46085;DHT22;31823;47.032;8.310;2023-05-20T07:36:59;13.30;99.90
46085;DHT22;31823;47.032;8.310;2023-05-20T07:39:25;14.00;99.90
46085;DHT22;31823;47.032;8.310;2023-05-20T07:41:51;14.10;99.90
46085;DHT22;31823;47.032;8.310;2023-05-20T07:44:17;14.30;99.90
46085;DHT22;31823;47.032;8.310;2023-05-20T07:46:46;14.70;99.90
46085;DHT22;31823;47.032;8.310;2023-05-20T07:49:12;15.00;99.90
46085;DHT22;31823;47.032;8.310;2023-05-20T07:51:38;15.30;99.90
46085;DHT22;31823;47.032;8.310;2023-05-20T07:54:04;15.10;99.90
46085;DHT22;31823;47.032;8.310;2023-05-20T07:56:29;14.60;99.90
46085;DHT22;31823;47.032;8.310;2023-05-20T07:58:58;15.10;99.90
46085;DHT22;31823;47.032;8.310;2023-05-20T08:01:24;15.20;99.90
46085;DHT22;31823;47.032;8.310;2023-05-20T08:03:50;15.10;99.90
46085;DHT22;31823;47.032;8.310;2023-05-20T08:06:15;14.50;99.90
46085;DHT22;31823;47.032;8.310;2023-05-20T08:08:42;14.40;99.90
46085;DHT22;31823;47.032;8.310;2023-05-20T08:11:08;14.40;99.90
46085;DHT22;31823;47.032;8.310;2023-05-20T08:13:34;14.20;99.90
46085;DHT22;31823;47.032;8.310;2023-05-20T08:16:00;14.20;99.90
46085;DHT22;31823;47.032;8.310;2023-05-20T08:18:28;14.30;99.90
46085;DHT22;31823;47.032;8.310;2023-05-20T08:20:54;14.20;99.90
46085;DHT22;31823;47.032;8.310;2023-05-20T08:23:19;14.40;99.90
46085;DHT22;31823;47.032;8.310;2023-05-20T08:25:45;14.40;99.90
46085;DHT22;31823;47.032;8.310;2023-05-20T08:28:13;14.10;99.90
46085;DHT22;31823;47.032;8.310;2023-05-20T08:30:39;13.80;99.90
46085;DHT22;31823;47.032;8.310;2023-05-20T08:33:05;13.50;99.90
46085;DHT22;31823;47.032;8.310;2023-05-20T08:35:31;13.60;99.90
46085;DHT22;31823;47.032;8.310;2023-05-20T08:37:57;13.60;99.90
46085;DHT22;31823;47.032;8.310;2023-05-20T08:40:22;13.70;99.90
46085;DHT22;31823;47.032;8.310;2023-05-20T08:42:49;13.90;99.90
46085;DHT22;31823;47.032;8.310;2023-05-20T08:45:18;14.20;99.90
46085;DHT22;31823;47.032;8.310;2023-05-20T08:47:45;14.30;99.90
46085;DHT22;31823;47.032;8.310;2023-05-20T08:50:12;14.20;99.90
46085;DHT22;31823;47.032;8.310;2023-05-20T08:52:45;14.10;99.90
46085;DHT22;31823;47.032;8.310;2023-05-20T08:55:17;14.20;99.90
46085;DHT22;31823;47.032;8.310;2023-05-20T08:57:51;14.10;99.90
46085;DHT22;31823;47.032;8.310;2023-05-20T09:00:19;14.20;99.90
46085;DHT22;31823;47.032;8.310;2023-05-20T09:02:46;14.20;99.90
46085;DHT22;31823;47.032;8.310;2023-05-20T09:05:11;14.00;99.90
46085;DHT22;31823;47.032;8.310;2023-05-20T09:07:37;14.30;99.90
46085;DHT22;31823;47.032;8.310;2023-05-20T09:10:03;14.70;99.90
46085;DHT22;31823;47.032;8.310;2023-05-20T09:12:29;15.00;99.90
46085;DHT22;31823;47.032;8.310;2023-05-20T09:14:55;14.90;99.90
46085;DHT22;31823;47.032;8.310;2023-05-20T09:17:24;14.70;99.90
46085;DHT22;31823;47.032;8.310;2023-05-20T09:19:51;14.60;99.90
46085;DHT22;31823;47.032;8.310;2023-05-20T09:22:27;14.40;99.90
46085;DHT22;31823;47.032;8.310;2023-05-20T09:24:54;14.40;99.90
46085;DHT22;31823;47.032;8.310;2023-05-20T09:27:20;14.70;99.90
46085;DHT22;31823;47.032;8.310;2023-05-20T09:29:49;14.80;99.90
46085;DHT22;31823;47.032;8.310;2023-05-20T09:32:20;14.80;99.90
46085;DHT22;31823;47.032;8.310;2023-05-20T09:34:48;14.60;99.90
46085;DHT22;31823;47.032;8.310;2023-05-20T09:37:17;14.50;99.90
46085;DHT22;31823;47.032;8.310;2023-05-20T09:40:00;14.50;99.90
46085;DHT22;31823;47.032;8.310;2023-05-20T09:42:39;14.10;99.90
46085;DHT22;31823;47.032;8.310;2023-05-20T09:45:07;14.10;99.90
46085;DHT22;31823;47.032;8.310;2023-05-20T09:47:37;14.10;99.90
46085;DHT22;31823;47.032;8.310;2023-05-20T09:50:05;14.10;99.90
46085;DHT22;31823;47.032;8.310;2023-05-20T09:52:36;14.10;99.90
46085;DHT22;31823;47.032;8.310;2023-05-20T09:55:04;14.20;99.90
46085;DHT22;31823;47.032;8.310;2023-05-20T09:57:34;14.10;99.90
46085;DHT22;31823;47.032;8.310;2023-05-20T10:00:03;14.00;99.90
46085;DHT22;31823;47.032;8.310;2023-05-20T10:02:31;14.00;99.90
46085;DHT22;31823;47.032;8.310;2023-05-20T10:04:58;14.20;99.90
46085;DHT22;31823;47.032;8.310;2023-05-20T10:07:50;14.30;99.90
46085;DHT22;31823;47.032;8.310;2023-05-20T10:21:26;14.20;99.90
46085;DHT22;31823;47.032;8.310;2023-05-20T10:23:52;14.20;99.90
46085;DHT22;31823;47.032;8.310;2023-05-20T10:26:18;14.30;99.90
46085;DHT22;31823;47.032;8.310;2023-05-20T10:28:45;14.40;99.90
46085;DHT22;31823;47.032;8.310;2023-05-20T10:31:20;14.50;99.90
46085;DHT22;31823;47.032;8.310;2023-05-20T10:33:46;14.40;99.90
46085;DHT22;31823;47.032;8.310;2023-05-20T10:36:26;14.30;99.90
46085;DHT22;31823;47.032;8.310;2023-05-20T10:38:55;14.00;99.90
46085;DHT22;31823;47.032;8.310;2023-05-20T10:41:24;13.90;99.90
46085;DHT22;31823;47.032;8.310;2023-05-20T10:44:01;13.90;99.90
46085;DHT22;31823;47.032;8.310;2023-05-20T10:46:28;13.80;99.90
46085;DHT22;31823;47.032;8.310;2023-05-20T10:48:54;13.90;99.90
46085;DHT22;31823;47.032;8.310;2023-05-20T10:51:20;13.90;99.90
46085;DHT22;31823;47.032;8.310;2023-05-20T10:53:46;14.00;99.90
46085;DHT22;31823;47.032;8.310;2023-05-20T10:56:19;14.00;99.90
46085;DHT22;31823;47.032;8.310;2023-05-20T10:58:45;14.20;99.90
46085;DHT22;31823;47.032;8.310;2023-05-20T11:01:12;14.30;99.90
46085;DHT22;31823;47.032;8.310;2023-05-20T11:03:42;14.20;99.90
46085;DHT22;31823;47.032;8.310;2023-05-20T11:06:15;14.40;99.90
46085;DHT22;31823;47.032;8.310;2023-05-20T11:08:42;14.50;99.90
46085;DHT22;31823;47.032;8.310;2023-05-20T11:11:09;14.60;99.90
46085;DHT22;31823;47.032;8.310;2023-05-20T11:13:35;14.50;99.90
46085;DHT22;31823;47.032;8.310;2023-05-20T11:16:01;14.20;99.90
46085;DHT22;31823;47.032;8.310;2023-05-20T11:18:29;14.00;99.90
46085;DHT22;31823;47.032;8.310;2023-05-20T11:20:58;14.20;99.90
46085;DHT22;31823;47.032;8.310;2023-05-20T11:23:28;14.40;99.90
46085;DHT22;31823;47.032;8.310;2023-05-20T11:25:55;14.40;99.90
46085;DHT22;31823;47.032;8.310;2023-05-20T11:28:22;14.50;99.90
46085;DHT22;31823;47.032;8.310;2023-05-20T11:30:49;14.40;99.90
46085;DHT22;31823;47.032;8.310;2023-05-20T11:33:16;14.40;99.90
46085;DHT22;31823;47.032;8.310;2023-05-20T11:35:51;14.40;99.90
46085;DHT22;31823;47.032;8.310;2023-05-20T11:38:18;14.50;99.90
46085;DHT22;31823;47.032;8.310;2023-05-20T11:40:45;14.60;99.90
46085;DHT22;31823;47.032;8.310;2023-05-20T11:43:12;14.60;99.90
46085;DHT22;31823;47.032;8.310;2023-05-20T11:45:39;14.40;99.90
46085;DHT22;31823;47.032;8.310;2023-05-20T11:48:05;14.20;99.90
46085;DHT22;31823;47.032;8.310;2023-05-20T11:50:36;14.20;99.90
46085;DHT22;31823;47.032;8.310;2023-05-20T11:53:04;14.20;99.90
46085;DHT22;31823;47.032;8.310;2023-05-20T11:55:31;14.30;99.90
46085;DHT22;31823;47.032;8.310;2023-05-20T11:57:58;14.30;99.90
46085;DHT22;31823;47.032;8.310;2023-05-20T12:00:24;14.20;99.90
46085;DHT22;31823;47.032;8.310;2023-05-20T12:02:50;14.30;99.90
46085;DHT22;31823;47.032;8.310;2023-05-20T12:05:15;14.30;99.90
46085;DHT22;31823;47.032;8.310;2023-05-20T12:07:41;14.60;99.90
46085;DHT22;31823;47.032;8.310;2023-05-20T12:10:07;14.70;99.90
46085;DHT22;31823;47.032;8.310;2023-05-20T12:12:34;14.80;99.90
46085;DHT22;31823;47.032;8.310;2023-05-20T12:15:02;14.50;99.90
46085;DHT22;31823;47.032;8.310;2023-05-20T12:17:28;14.50;99.90
46085;DHT22;31823;47.032;8.310;2023-05-20T12:19:53;14.40;99.90
46085;DHT22;31823;47.032;8.310;2023-05-20T12:22:19;14.40;99.90
46085;DHT22;31823;47.032;8.310;2023-05-20T12:24:44;14.60;99.90
46085;DHT22;31823;47.032;8.310;2023-05-20T12:27:10;14.70;99.90
46085;DHT22;31823;47.032;8.310;2023-05-20T12:29:37;14.90;99.90
46085;DHT22;31823;47.032;8.310;2023-05-20T12:32:02;14.70;99.90
46085;DHT22;31823;47.032;8.310;2023-05-20T12:34:28;14.70;99.90
46085;DHT22;31823;47.032;8.310;2023-05-20T12:36:54;14.60;99.90
46085;DHT22;31823;47.032;8.310;2023-05-20T12:39:20;14.60;99.90
46085;DHT22;31823;47.032;8.310;2023-05-20T12:41:46;14.50;99.90
46085;DHT22;31823;47.032;8.310;2023-05-20T12:44:11;14.60;99.90
46085;DHT22;31823;47.032;8.310;2023-05-20T12:46:37;14.80;99.90
46085;DHT22;31823;47.032;8.310;2023-05-20T12:49:03;14.80;99.90
46085;DHT22;31823;47.032;8.310;2023-05-20T12:51:28;14.90;99.90
46085;DHT22;31823;47.032;8.310;2023-05-20T12:53:54;15.00;99.90
46085;DHT22;31823;47.032;8.310;2023-05-20T12:56:19;14.90;99.90
46085;DHT22;31823;47.032;8.310;2023-05-20T12:58:45;14.80;99.90
46085;DHT22;31823;47.032;8.310;2023-05-20T13:01:11;14.70;99.90
46085;DHT22;31823;47.032;8.310;2023-05-20T13:03:36;14.80;99.90
46085;DHT22;31823;47.032;8.310;2023-05-20T13:06:03;14.90;99.90
46085;DHT22;31823;47.032;8.310;2023-05-20T13:08:29;14.80;99.90
46085;DHT22;31823;47.032;8.310;2023-05-20T13:10:54;14.80;99.90
46085;DHT22;31823;47.032;8.310;2023-05-20T13:13:20;14.90;99.90
46085;DHT22;31823;47.032;8.310;2023-05-20T13:15:47;15.10;99.90
46085;DHT22;31823;47.032;8.310;2023-05-20T13:18:16;15.20;99.90
46085;DHT22;31823;47.032;8.310;2023-05-20T13:20:44;15.30;99.90
46085;DHT22;31823;47.032;8.310;2023-05-20T13:23:10;15.20;99.90
46085;DHT22;31823;47.032;8.310;2023-05-20T13:25:36;15.30;99.90
46085;DHT22;31823;47.032;8.310;2023-05-20T13:28:03;15.40;99.90
46085;DHT22;31823;47.032;8.310;2023-05-20T13:30:29;15.00;99.90
46085;DHT22;31823;47.032;8.310;2023-05-20T13:32:55;15.10;99.90
46085;DHT22;31823;47.032;8.310;2023-05-20T13:35:20;15.30;99.90
46085;DHT22;31823;47.032;8.310;2023-05-20T13:37:46;15.30;99.90
46085;DHT22;31823;47.032;8.310;2023-05-20T13:40:12;15.30;99.90
46085;DHT22;31823;47.032;8.310;2023-05-20T13:42:38;15.30;99.90
46085;DHT22;31823;47.032;8.310;2023-05-20T13:45:04;15.40;99.90
46085;DHT22;31823;47.032;8.310;2023-05-20T13:47:30;15.50;99.90
46085;DHT22;31823;47.032;8.310;2023-05-20T13:49:56;15.50;99.90
46085;DHT22;31823;47.032;8.310;2023-05-20T13:52:21;15.30;99.90
46085;DHT22;31823;47.032;8.310;2023-05-20T13:54:47;15.10;99.90
46085;DHT22;31823;47.032;8.310;2023-05-20T13:57:13;14.90;99.90
46085;DHT22;31823;47.032;8.310;2023-05-20T13:59:39;15.00;99.90
46085;DHT22;31823;47.032;8.310;2023-05-20T14:02:05;15.00;99.90
46085;DHT22;31823;47.032;8.310;2023-05-20T14:04:31;15.00;99.90
46085;DHT22;31823;47.032;8.310;2023-05-20T14:07:03;15.10;99.90
46085;DHT22;31823;47.032;8.310;2023-05-20T14:09:28;15.00;99.90
46085;DHT22;31823;47.032;8.310;2023-05-20T14:11:54;15.00;99.90
46085;DHT22;31823;47.032;8.310;2023-05-20T14:14:20;14.90;99.90
46085;DHT22;31823;47.032;8.310;2023-05-20T14:16:45;14.80;99.90
46085;DHT22;31823;47.032;8.310;2023-05-20T14:19:11;14.80;99.90
46085;DHT22;31823;47.032;8.310;2023-05-20T14:21:38;14.70;99.90
46085;DHT22;31823;47.032;8.310;2023-05-20T14:24:04;14.60;99.90
46085;DHT22;31823;47.032;8.310;2023-05-20T14:26:31;14.70;99.90
46085;DHT22;31823;47.032;8.310;2023-05-20T14:28:57;14.70;99.90
46085;DHT22;31823;47.032;8.310;2023-05-20T14:31:22;14.60;99.90
46085;DHT22;31823;47.032;8.310;2023-05-20T14:33:48;14.60;99.90
46085;DHT22;31823;47.032;8.310;2023-05-20T14:36:14;14.70;99.90
46085;DHT22;31823;47.032;8.310;2023-05-20T14:38:39;14.70;99.90
46085;DHT22;31823;47.032;8.310;2023-05-20T14:41:05;14.60;99.90
46085;DHT22;31823;47.032;8.310;2023-05-20T14:43:30;14.60;99.90
46085;DHT22;31823;47.032;8.310;2023-05-20T14:45:56;14.70;99.90
46085;DHT22;31823;47.032;8.310;2023-05-20T14:48:22;14.70;99.90
46085;DHT22;31823;47.032;8.310;2023-05-20T14:50:48;14.80;99.90
46085;DHT22;31823;47.032;8.310;2023-05-20T14:53:13;14.70;99.90
46085;DHT22;31823;47.032;8.310;2023-05-20T14:55:42;14.60;99.90
46085;DHT22;31823;47.032;8.310;2023-05-20T14:58:07;14.50;99.90
46085;DHT22;31823;47.032;8.310;2023-05-20T15:00:33;14.50;99.90
46085;DHT22;31823;47.032;8.310;2023-05-20T15:02:59;14.50;99.90
46085;DHT22;31823;47.032;8.310;2023-05-20T15:05:24;14.40;99.90
46085;DHT22;31823;47.032;8.310;2023-05-20T15:07:50;14.30;99.90
46085;DHT22;31823;47.032;8.310;2023-05-20T15:10:15;14.20;99.90
46085;DHT22;31823;47.032;8.310;2023-05-20T15:12:41;14.20;99.90
46085;DHT22;31823;47.032;8.310;2023-05-20T15:15:08;14.30;99.90
46085;DHT22;31823;47.032;8.310;2023-05-20T15:17:34;14.20;99.90
46085;DHT22;31823;47.032;8.310;2023-05-20T15:20:00;14.20;99.90
46085;DHT22;31823;47.032;8.310;2023-05-20T15:22:25;14.10;99.90
46085;DHT22;31823;47.032;8.310;2023-05-20T15:24:51;14.10;99.90
46085;DHT22;31823;47.032;8.310;2023-05-20T15:27:17;14.10;99.90
46085;DHT22;31823;47.032;8.310;2023-05-20T15:29:42;14.10;99.90
46085;DHT22;31823;47.032;8.310;2023-05-20T15:32:08;14.00;99.90
46085;DHT22;31823;47.032;8.310;2023-05-20T15:34:33;14.10;99.90
46085;DHT22;31823;47.032;8.310;2023-05-20T15:36:59;14.10;99.90